Time;durP1;ratioP1;P1;durP2;ratioP2;P2;SDS_P1;SDS_P2;PMS_P1;PMS_P2;Temp;Humidity;BMP_temperature;BMP_pressure;BME280_temperature;BME280_humidity;BME280_pressure;Samples;Min_cycle;Max_cycle;Signal;HPM_P1;HPM_P2
2021/05/25 00:00:16;;;;;;;1.98;1.73;;;15.40;78.40;;;;;;5084906;28;20655;-66
2021/05/25 00:02:44;;;;;;;2.83;2.15;;;15.50;78.40;;;;;;5091215;28;20036;-66
2021/05/25 00:05:13;;;;;;;2.00;1.80;;;15.50;78.40;;;;;;5092999;28;20186;-66
2021/05/25 00:07:39;;;;;;;1.85;1.73;;;15.50;78.30;;;;;;5093529;28;20028;-66
2021/05/25 00:10:05;;;;;;;3.80;1.73;;;15.50;78.40;;;;;;5094373;28;20020;-66
2021/05/25 00:12:31;;;;;;;1.52;1.42;;;15.50;78.30;;;;;;5093692;28;20452;-65
2021/05/25 00:14:57;;;;;;;2.55;1.75;;;15.40;78.20;;;;;;5088321;28;20031;-66
2021/05/25 00:17:23;;;;;;;1.92;1.80;;;15.40;78.30;;;;;;5095666;28;20024;-65
2021/05/25 00:19:49;;;;;;;2.20;1.88;;;15.40;78.30;;;;;;5090398;28;20376;-66
2021/05/25 00:22:14;;;;;;;1.80;1.70;;;15.40;78.10;;;;;;5094260;28;20035;-66
2021/05/25 00:24:41;;;;;;;2.30;1.90;;;15.40;78.30;;;;;;5093418;28;20520;-65
2021/05/25 00:27:07;;;;;;;1.80;1.70;;;15.40;78.40;;;;;;5077114;28;20021;-66
2021/05/25 00:29:33;;;;;;;1.67;1.58;;;15.40;78.30;;;;;;5083934;28;20544;-66
2021/05/25 00:31:59;;;;;;;2.08;1.75;;;15.40;78.50;;;;;;5085421;28;20048;-66
2021/05/25 00:34:24;;;;;;;2.33;2.17;;;15.40;78.60;;;;;;5075920;28;20021;-65
2021/05/25 00:36:50;;;;;;;2.17;1.80;;;15.40;79.00;;;;;;5094882;28;20082;-66
2021/05/25 00:39:16;;;;;;;3.22;1.90;;;15.30;78.90;;;;;;5095361;28;20055;-65
2021/05/25 00:41:41;;;;;;;1.77;1.67;;;15.30;78.80;;;;;;5093531;28;20031;-65
2021/05/25 00:44:08;;;;;;;2.08;1.88;;;15.30;78.60;;;;;;5095342;28;20449;-66
2021/05/25 00:46:35;;;;;;;1.85;1.75;;;15.30;78.80;;;;;;5095057;28;20459;-65
2021/05/25 00:49:00;;;;;;;3.03;1.92;;;15.30;78.60;;;;;;5095179;28;20036;-65
2021/05/25 00:51:26;;;;;;;2.65;2.08;;;15.30;78.80;;;;;;5093139;28;20032;-65
2021/05/25 00:53:52;;;;;;;2.10;1.90;;;15.30;78.50;;;;;;5094819;28;20027;-65
2021/05/25 00:56:18;;;;;;;2.53;2.17;;;15.30;78.70;;;;;;5081016;28;20028;-66
2021/05/25 00:58:43;;;;;;;2.58;1.88;;;15.30;78.60;;;;;;5077089;28;20050;-65
2021/05/25 01:01:09;;;;;;;1.83;1.73;;;15.30;78.50;;;;;;5092501;28;20039;-65
2021/05/25 01:03:35;;;;;;;2.50;1.92;;;15.30;78.30;;;;;;5090000;28;20024;-65
2021/05/25 01:06:00;;;;;;;3.17;2.00;;;15.30;78.60;;;;;;5080461;28;20056;-65
2021/05/25 01:08:26;;;;;;;2.30;2.10;;;15.30;78.10;;;;;;5074825;28;20028;-65
2021/05/25 01:10:56;;;;;;;1.92;1.77;;;15.30;78.00;;;;;;5092451;28;20028;-65
2021/05/25 01:13:24;;;;;;;2.17;2.00;;;15.30;78.10;;;;;;5095039;28;20028;-65
2021/05/25 01:15:51;;;;;;;1.80;1.70;;;15.30;78.10;;;;;;5093988;28;20024;-66
2021/05/25 01:18:18;;;;;;;2.25;2.05;;;15.30;78.20;;;;;;5093498;28;20028;-66
2021/05/25 01:20:46;;;;;;;2.13;1.98;;;15.20;78.20;;;;;;5094960;28;20089;-65
2021/05/25 01:23:12;;;;;;;2.30;1.85;;;15.20;78.00;;;;;;5094382;28;20024;-66
2021/05/25 01:25:41;;;;;;;1.73;1.52;;;15.20;78.00;;;;;;5093999;28;20063;-65
2021/05/25 01:28:10;;;;;;;1.90;1.80;;;15.20;78.10;;;;;;5080821;28;20041;-66
2021/05/25 01:30:42;;;;;;;2.97;1.70;;;15.20;77.80;;;;;;5088892;28;20111;-66
2021/05/25 01:33:09;;;;;;;3.00;2.05;;;15.20;78.10;;;;;;5084609;28;20384;-66
2021/05/25 01:35:35;;;;;;;2.85;2.05;;;15.20;78.10;;;;;;5091741;28;20098;-66
2021/05/25 01:38:04;;;;;;;2.58;2.38;;;15.20;78.00;;;;;;5085898;28;20027;-66
2021/05/25 01:40:31;;;;;;;1.98;1.88;;;15.20;77.90;;;;;;5089485;28;20131;-66
2021/05/25 01:42:56;;;;;;;2.20;1.90;;;15.20;77.90;;;;;;5094377;28;20024;-65
2021/05/25 01:45:30;;;;;;;2.85;2.13;;;15.20;77.70;;;;;;5093473;28;20152;-66
2021/05/25 01:47:58;;;;;;;3.35;1.90;;;15.20;77.70;;;;;;5094608;28;20371;-65
2021/05/25 01:50:26;;;;;;;1.88;1.77;;;15.20;77.40;;;;;;5092858;28;20098;-66
2021/05/25 01:52:55;;;;;;;3.53;2.20;;;15.20;78.10;;;;;;5094574;28;20019;-65
2021/05/25 01:55:25;;;;;;;2.30;1.92;;;15.10;77.40;;;;;;5093715;28;20035;-66
2021/05/25 01:57:50;;;;;;;2.00;1.90;;;15.10;77.40;;;;;;5090107;28;20055;-65
2021/05/25 02:00:16;;;;;;;3.83;2.40;;;15.10;77.60;;;;;;5091370;28;20085;-65
2021/05/25 02:02:42;;;;;;;2.45;2.05;;;15.10;77.70;;;;;;5094007;28;20020;-66
2021/05/25 02:05:08;;;;;;;2.45;2.20;;;15.20;77.80;;;;;;5090875;28;20028;-65
2021/05/25 02:07:33;;;;;;;2.28;2.08;;;15.20;77.80;;;;;;5092780;28;20032;-66
2021/05/25 02:09:59;;;;;;;2.25;2.05;;;15.20;77.60;;;;;;5092898;28;20040;-66
2021/05/25 02:12:25;;;;;;;2.22;2.00;;;15.20;77.80;;;;;;5093597;28;20445;-65
2021/05/25 02:14:51;;;;;;;2.13;1.88;;;15.20;77.70;;;;;;5093333;28;20028;-65
2021/05/25 02:17:16;;;;;;;2.92;2.05;;;15.20;77.90;;;;;;5081015;28;20106;-66
2021/05/25 02:19:42;;;;;;;1.90;1.80;;;15.20;77.80;;;;;;5092993;28;20020;-66
2021/05/25 02:22:09;;;;;;;3.60;2.15;;;15.30;77.70;;;;;;5093367;28;20085;-65
2021/05/25 02:24:35;;;;;;;2.10;2.00;;;15.30;77.80;;;;;;5093216;28;20107;-66
2021/05/25 02:27:01;;;;;;;2.15;2.00;;;15.30;77.70;;;;;;5084997;28;20115;-66
2021/05/25 02:29:26;;;;;;;3.95;2.15;;;15.30;77.50;;;;;;5090945;28;20035;-66
2021/05/25 02:31:52;;;;;;;2.28;1.90;;;15.40;77.30;;;;;;5091110;28;20020;-66
2021/05/25 02:34:17;;;;;;;3.95;1.95;;;15.40;77.10;;;;;;5079736;28;20021;-66
2021/05/25 02:36:43;;;;;;;2.03;1.92;;;15.40;77.30;;;;;;5091767;28;20040;-66
2021/05/25 02:39:09;;;;;;;1.83;1.73;;;15.50;77.20;;;;;;5092911;28;20110;-66
2021/05/25 02:41:34;;;;;;;1.90;1.80;;;15.50;76.80;;;;;;5092361;28;20056;-66
2021/05/25 02:44:00;;;;;;;3.75;1.70;;;15.50;76.90;;;;;;5093251;28;20058;-66
2021/05/25 02:46:26;;;;;;;2.38;1.60;;;15.50;76.90;;;;;;5082535;28;20052;-66
2021/05/25 02:48:51;;;;;;;2.10;1.90;;;15.60;77.20;;;;;;5088365;28;20371;-66
2021/05/25 02:51:17;;;;;;;2.58;2.38;;;15.70;77.50;;;;;;5090054;28;20025;-66
2021/05/25 02:53:43;;;;;;;3.10;2.38;;;15.70;77.50;;;;;;5093334;28;20046;-66
2021/05/25 02:56:09;;;;;;;2.20;1.92;;;15.70;77.40;;;;;;5093016;28;20031;-66
2021/05/25 02:58:34;;;;;;;2.78;2.08;;;15.80;77.50;;;;;;5081257;28;20032;-66
2021/05/25 03:01:00;;;;;;;2.80;2.20;;;15.80;77.60;;;;;;5091491;28;20024;-66
2021/05/25 03:03:26;;;;;;;2.95;2.42;;;15.80;77.60;;;;;;5093281;28;20039;-66
2021/05/25 03:05:52;;;;;;;2.30;1.92;;;15.80;77.60;;;;;;5090973;28;20056;-66
2021/05/25 03:08:17;;;;;;;3.40;2.30;;;15.90;77.50;;;;;;5083405;28;20028;-66
2021/05/25 03:10:46;;;;;;;2.00;1.85;;;15.90;77.20;;;;;;5095578;28;20019;-66
2021/05/25 03:13:11;;;;;;;3.03;2.38;;;15.90;77.10;;;;;;5097063;28;20028;-66
2021/05/25 03:15:42;;;;;;;2.10;2.00;;;16.00;77.20;;;;;;5096748;28;20028;-66
2021/05/25 03:18:09;;;;;;;2.23;2.03;;;16.10;76.80;;;;;;5096059;28;20536;-66
2021/05/25 03:20:35;;;;;;;2.17;1.92;;;16.10;77.20;;;;;;5096848;28;20028;-66
2021/05/25 03:23:03;;;;;;;2.75;2.13;;;16.20;77.70;;;;;;5097043;28;20073;-66
2021/05/25 03:25:29;;;;;;;3.15;2.35;;;16.40;78.40;;;;;;5096791;28;20024;-66
2021/05/25 03:27:54;;;;;;;2.90;2.53;;;16.60;78.60;;;;;;5093937;28;20024;-67
2021/05/25 03:30:23;;;;;;;2.38;2.17;;;16.70;78.60;;;;;;5091235;28;20065;-67
2021/05/25 03:32:50;;;;;;;2.33;2.13;;;17.00;78.40;;;;;;5096797;28;20115;-67
2021/05/25 03:35:17;;;;;;;3.15;2.35;;;17.30;78.30;;;;;;5095611;28;20447;-67
2021/05/25 03:37:44;;;;;;;2.25;2.10;;;17.60;78.10;;;;;;5083479;28;20104;-67
2021/05/25 03:40:13;;;;;;;4.38;2.25;;;18.10;77.70;;;;;;5088249;28;20479;-67
2021/05/25 03:42:42;;;;;;;2.47;2.28;;;18.60;76.60;;;;;;5078220;28;20024;-65
2021/05/25 03:45:08;;;;;;;2.28;2.08;;;19.30;75.20;;;;;;5095598;28;20044;-65
2021/05/25 03:47:34;;;;;;;2.22;2.05;;;20.00;73.80;;;;;;5095196;28;20146;-67
2021/05/25 03:50:09;;;;;;;2.30;2.10;;;20.80;71.80;;;;;;5093986;28;20024;-66
2021/05/25 03:52:37;;;;;;;3.28;2.30;;;21.70;69.60;;;;;;5076255;28;20077;-66
2021/05/25 03:55:11;;;;;;;2.83;2.15;;;22.60;67.00;;;;;;5076186;28;20017;-66
2021/05/25 04:00:04;;;;;;;1.88;1.77;;;24.40;62.50;;;;;;5092851;28;20107;-68
2021/05/25 04:02:31;;;;;;;2.00;1.90;;;25.20;60.30;;;;;;5085748;28;20112;-66
2021/05/25 04:04:57;;;;;;;1.90;1.80;;;25.90;58.60;;;;;;5077599;28;20488;-68
2021/05/25 04:07:23;;;;;;;1.73;1.63;;;26.50;57.10;;;;;;5083893;28;20107;-66
2021/05/25 04:09:48;;;;;;;1.50;1.40;;;27.20;55.90;;;;;;5075909;28;20024;-66
2021/05/25 04:12:14;;;;;;;2.60;1.52;;;27.70;53.80;;;;;;5092955;28;20077;-66
2021/05/25 04:14:40;;;;;;;1.65;1.38;;;28.20;52.80;;;;;;5092189;28;20480;-69
2021/05/25 04:17:05;;;;;;;1.75;1.50;;;28.80;51.60;;;;;;5089536;28;20024;-67
2021/05/25 04:19:31;;;;;;;2.38;1.55;;;29.40;50.20;;;;;;5094932;28;20036;-67
2021/05/25 04:21:57;;;;;;;4.78;1.42;;;29.90;49.10;;;;;;5095739;28;20023;-67
2021/05/25 04:24:22;;;;;;;1.45;1.35;;;30.30;48.20;;;;;;5094951;28;20345;-67
2021/05/25 04:26:48;;;;;;;1.75;1.23;;;30.80;47.30;;;;;;5089880;28;20407;-67
2021/05/25 04:29:14;;;;;;;2.10;1.30;;;31.10;46.40;;;;;;5084941;28;20024;-67
2021/05/25 04:31:39;;;;;;;1.92;1.15;;;31.40;45.60;;;;;;5093200;28;20024;-67
2021/05/25 04:34:05;;;;;;;1.27;1.17;;;31.80;45.30;;;;;;5095211;28;20133;-67
2021/05/25 04:36:30;;;;;;;1.73;1.33;;;32.10;44.90;;;;;;5089151;28;20476;-70
2021/05/25 04:38:56;;;;;;;1.33;1.23;;;32.50;44.00;;;;;;5093862;28;20077;-67
2021/05/25 04:41:22;;;;;;;1.20;1.00;;;32.80;43.50;;;;;;5093398;28;20027;-67
2021/05/25 04:43:48;;;;;;;1.02;1.00;;;33.00;43.00;;;;;;5095580;28;20107;-67
2021/05/25 04:46:13;;;;;;;1.90;1.23;;;33.20;42.50;;;;;;5082473;28;20384;-68
2021/05/25 04:48:39;;;;;;;1.55;1.00;;;33.40;42.20;;;;;;5095228;28;20031;-68
2021/05/25 04:51:05;;;;;;;1.10;1.10;;;33.50;41.80;;;;;;5089658;28;20049;-69
2021/05/25 04:53:32;;;;;;;2.40;1.55;;;33.60;41.50;;;;;;5095178;28;20103;-68
2021/05/25 04:55:59;;;;;;;1.73;1.30;;;33.80;41.60;;;;;;5078213;28;20032;-69
2021/05/25 04:58:24;;;;;;;1.67;1.30;;;33.90;41.20;;;;;;5075131;28;20111;-69
2021/05/25 05:00:50;;;;;;;1.70;1.30;;;34.00;40.90;;;;;;5087576;28;20150;-69
2021/05/25 05:03:16;;;;;;;1.67;1.33;;;34.10;40.80;;;;;;5074867;28;20033;-69
2021/05/25 05:05:41;;;;;;;1.60;1.30;;;34.20;40.50;;;;;;5090007;28;20071;-69
2021/05/25 05:08:07;;;;;;;1.35;1.17;;;34.30;40.30;;;;;;5085762;28;20035;-69
2021/05/25 05:10:33;;;;;;;2.60;2.40;;;34.30;39.90;;;;;;5078914;28;20460;-69
2021/05/25 05:12:59;;;;;;;4.32;3.13;;;34.30;39.80;;;;;;5094305;28;20414;-69
2021/05/25 05:15:24;;;;;;;1.88;1.73;;;34.30;39.60;;;;;;5074815;28;20053;-69
2021/05/25 05:17:50;;;;;;;1.52;1.10;;;34.30;39.20;;;;;;5090687;28;20024;-69
2021/05/25 05:20:16;;;;;;;1.50;1.40;;;34.10;39.10;;;;;;5090919;28;20387;-56
2021/05/25 05:22:43;;;;;;;1.45;1.20;;;33.70;38.80;;;;;;5093090;28;20496;-53
2021/05/25 05:25:10;;;;;;;1.13;1.02;;;33.00;39.30;;;;;;5093252;28;20035;-53
2021/05/25 05:27:36;;;;;;;1.27;1.17;;;32.10;40.10;;;;;;5072881;28;20024;-56
2021/05/25 05:30:06;;;;;;;1.15;1.05;;;31.10;41.10;;;;;;5087205;28;20027;-55
2021/05/25 05:32:32;;;;;;;1.55;1.27;;;30.10;41.90;;;;;;5088033;28;20016;-56
2021/05/25 05:34:58;;;;;;;1.60;1.50;;;29.20;43.00;;;;;;5079400;28;20038;-54
2021/05/25 05:37:23;;;;;;;1.55;1.38;;;28.30;43.70;;;;;;5085808;28;20458;-55
2021/05/25 05:39:49;;;;;;;2.13;1.60;;;27.50;44.70;;;;;;5076551;28;20039;-56
2021/05/25 05:42:15;;;;;;;3.05;1.52;;;26.90;45.50;;;;;;5082379;28;20043;-55
2021/05/25 05:44:41;;;;;;;3.97;1.42;;;26.30;46.60;;;;;;5061383;28;20438;-57
2021/05/25 05:47:07;;;;;;;1.70;1.60;;;25.90;47.10;;;;;;5079287;28;20028;-55
2021/05/25 05:49:33;;;;;;;2.80;1.60;;;25.50;48.10;;;;;;5081871;28;20816;-53
2021/05/25 05:51:58;;;;;;;1.67;1.58;;;25.10;49.30;;;;;;5070658;28;20024;-55
2021/05/25 05:54:24;;;;;;;1.98;1.73;;;24.80;49.40;;;;;;5076565;28;20484;-53
2021/05/25 05:56:50;;;;;;;1.80;1.70;;;24.50;50.00;;;;;;5072567;28;20079;-55
2021/05/25 05:59:16;;;;;;;2.60;2.00;;;24.30;50.80;;;;;;5070119;28;20032;-56
2021/05/25 06:01:42;;;;;;;1.55;1.45;;;24.10;51.30;;;;;;5074515;28;20036;-56
2021/05/25 06:04:08;;;;;;;2.05;1.55;;;23.90;51.60;;;;;;5075722;28;20073;-51
2021/05/25 06:06:34;;;;;;;3.45;1.55;;;23.80;52.00;;;;;;5070924;28;20024;-54
2021/05/25 06:09:00;;;;;;;1.58;1.48;;;23.70;52.30;;;;;;5075054;28;20032;-53
2021/05/25 06:11:26;;;;;;;1.40;1.30;;;23.60;52.60;;;;;;5078779;28;20077;-51
2021/05/25 06:13:51;;;;;;;1.75;1.65;;;23.50;53.00;;;;;;5083102;28;20482;-51
2021/05/25 06:16:17;;;;;;;1.60;1.45;;;23.40;53.00;;;;;;5078146;28;20059;-56
2021/05/25 06:18:43;;;;;;;1.70;1.60;;;23.30;52.80;;;;;;5078788;28;20519;-53
2021/05/25 06:21:08;;;;;;;2.03;1.83;;;23.20;53.10;;;;;;5074633;28;20831;-49
2021/05/25 06:23:34;;;;;;;1.90;1.65;;;23.10;53.50;;;;;;5084142;28;20029;-48
2021/05/25 06:26:03;;;;;;;2.55;1.60;;;23.00;53.60;;;;;;5077694;28;20032;-48
2021/05/25 06:28:31;;;;;;;2.03;1.70;;;22.90;53.80;;;;;;5082240;28;20032;-55
2021/05/25 06:30:57;;;;;;;1.77;1.67;;;22.80;54.10;;;;;;5075114;28;20024;-55
2021/05/25 06:33:26;;;;;;;2.22;1.90;;;22.70;53.90;;;;;;5076435;28;20150;-56
2021/05/25 06:35:51;;;;;;;1.92;1.52;;;22.60;54.10;;;;;;5077564;28;20055;-55
2021/05/25 06:38:18;;;;;;;2.03;1.88;;;22.60;54.50;;;;;;5082286;28;20101;-58
2021/05/25 06:40:44;;;;;;;2.60;1.95;;;22.50;54.50;;;;;;5085752;28;20032;-53
2021/05/25 06:43:10;;;;;;;2.83;1.83;;;22.50;54.60;;;;;;5082029;28;20032;-52
2021/05/25 06:45:36;;;;;;;2.05;1.85;;;22.50;54.20;;;;;;5088805;28;20043;-52
2021/05/25 06:48:02;;;;;;;1.73;1.63;;;22.40;54.50;;;;;;5085245;28;20150;-54
2021/05/25 06:50:27;;;;;;;1.90;1.80;;;22.40;54.60;;;;;;5079984;28;20111;-55
2021/05/25 06:52:53;;;;;;;4.63;2.08;;;22.30;54.80;;;;;;5089155;28;20028;-55
2021/05/25 06:55:19;;;;;;;3.28;1.85;;;22.30;55.20;;;;;;5080547;28;20028;-54
2021/05/25 06:57:44;;;;;;;1.58;1.48;;;22.20;55.10;;;;;;5075190;28;20066;-54
2021/05/25 07:00:12;;;;;;;1.60;1.50;;;22.20;55.20;;;;;;5073206;28;20066;-53
2021/05/25 07:02:38;;;;;;;1.60;1.50;;;22.20;55.50;;;;;;5061332;28;20036;-53
2021/05/25 07:05:06;;;;;;;1.50;1.40;;;22.10;55.20;;;;;;5071066;28;20582;-55
2021/05/25 07:07:32;;;;;;;2.20;1.60;;;22.10;55.50;;;;;;5073318;28;20029;-55
2021/05/25 07:09:58;;;;;;;1.63;1.52;;;22.10;55.90;;;;;;5069370;28;20081;-55
2021/05/25 07:12:24;;;;;;;2.60;1.58;;;22.10;55.70;;;;;;5071154;28;21124;-52
2021/05/25 07:14:49;;;;;;;2.35;1.42;;;22.10;55.60;;;;;;5069906;28;20083;-54
2021/05/25 07:17:15;;;;;;;2.53;1.73;;;22.10;55.60;;;;;;5070757;28;20098;-55
2021/05/25 07:19:41;;;;;;;1.80;1.70;;;22.20;55.60;;;;;;5073136;28;20016;-53
2021/05/25 07:22:06;;;;;;;1.80;1.50;;;22.20;55.50;;;;;;5066815;28;20074;-54
2021/05/25 07:24:32;;;;;;;2.72;1.90;;;22.20;55.40;;;;;;5074209;28;20032;-55
2021/05/25 07:26:58;;;;;;;1.60;1.50;;;22.20;55.60;;;;;;5071789;28;20036;-56
2021/05/25 07:29:24;;;;;;;1.85;1.75;;;22.20;55.80;;;;;;5069483;28;20032;-52
2021/05/25 07:31:50;;;;;;;3.97;1.77;;;22.30;55.60;;;;;;5068077;28;20464;-54
2021/05/25 07:34:16;;;;;;;2.17;1.63;;;22.30;56.20;;;;;;5070727;28;20115;-56
2021/05/25 07:36:42;;;;;;;1.60;1.50;;;22.30;55.80;;;;;;5072272;28;20431;-54
2021/05/25 07:39:08;;;;;;;2.10;1.90;;;22.20;55.80;;;;;;5069533;28;20052;-54
2021/05/25 07:41:34;;;;;;;1.27;1.27;;;22.30;55.70;;;;;;5077795;28;20118;-56
2021/05/25 07:44:00;;;;;;;1.88;1.77;;;22.30;56.20;;;;;;5073794;28;20147;-51
2021/05/25 07:46:27;;;;;;;1.70;1.60;;;22.40;56.10;;;;;;5077454;28;20660;-55
2021/05/25 07:48:53;;;;;;;1.73;1.63;;;22.40;56.50;;;;;;5041582;28;20032;-55
2021/05/25 07:51:20;;;;;;;2.00;1.50;;;22.50;56.80;;;;;;5048444;28;23056;-56
2021/05/25 07:53:46;;;;;;;2.30;1.63;;;22.50;56.50;;;;;;5064425;28;20024;-57
2021/05/25 07:56:13;;;;;;;1.67;1.58;;;22.60;56.50;;;;;;5072266;28;20056;-56
2021/05/25 07:58:39;;;;;;;2.17;1.80;;;22.60;56.20;;;;;;5070088;28;20032;-56
2021/05/25 08:01:05;;;;;;;1.73;1.63;;;22.60;56.50;;;;;;5070045;28;20046;-57
2021/05/25 08:03:30;;;;;;;2.00;1.52;;;22.60;56.20;;;;;;5072129;28;20032;-57
2021/05/25 08:05:58;;;;;;;1.67;1.58;;;22.60;56.00;;;;;;5049880;28;20036;-54
2021/05/25 08:08:25;;;;;;;1.60;1.50;;;22.60;56.00;;;;;;5073333;28;20029;-54
2021/05/25 08:10:50;;;;;;;1.83;1.60;;;22.50;56.00;;;;;;5076413;28;20115;-56
2021/05/25 08:13:16;;;;;;;1.85;1.55;;;22.50;56.10;;;;;;5051039;28;20113;-54
2021/05/25 08:15:42;;;;;;;2.08;1.65;;;22.40;56.20;;;;;;5069476;28;20032;-56
2021/05/25 08:20:52;;;;;;;1.75;1.60;;;22.40;56.50;;;;;;5075763;28;20039;-51
2021/05/25 08:23:18;;;;;;;2.25;1.65;;;22.40;56.70;;;;;;5074883;28;20732;-54
2021/05/25 08:25:44;;;;;;;2.00;1.70;;;22.30;56.30;;;;;;5073805;28;20033;-54
2021/05/25 08:28:11;;;;;;;1.80;1.70;;;22.30;56.10;;;;;;5071365;28;20028;-54
2021/05/25 08:30:41;;;;;;;1.80;1.70;;;22.30;56.30;;;;;;5069216;28;20079;-54
2021/05/25 08:33:08;;;;;;;1.52;1.42;;;22.30;56.70;;;;;;5072358;28;20040;-55
2021/05/25 08:35:52;;;;;;;2.17;1.50;;;22.20;56.60;;;;;;5072741;28;20032;-54
2021/05/25 08:38:21;;;;;;;2.65;1.50;;;22.20;56.40;;;;;;5076799;28;20875;-52
2021/05/25 08:40:53;;;;;;;1.52;1.30;;;22.10;56.30;;;;;;5078376;28;20036;-55
2021/05/25 08:43:20;;;;;;;2.30;2.08;;;22.10;56.70;;;;;;5072887;28;20078;-54
2021/05/25 08:45:47;;;;;;;1.80;1.70;;;22.10;57.20;;;;;;5072338;28;20039;-55
2021/05/25 08:48:13;;;;;;;2.65;1.92;;;22.10;57.70;;;;;;5068649;28;20067;-56
2021/05/25 08:50:39;;;;;;;1.60;1.50;;;22.10;58.10;;;;;;5070887;28;20122;-55
2021/05/25 08:53:06;;;;;;;2.58;1.75;;;22.10;57.10;;;;;;5073645;28;20842;-55
2021/05/25 08:55:34;;;;;;;1.73;1.60;;;22.10;57.80;;;;;;5053149;28;20092;-55
2021/05/25 08:58:05;;;;;;;1.85;1.70;;;22.00;57.90;;;;;;5067358;28;20124;-53
2021/05/25 09:00:33;;;;;;;1.83;1.73;;;22.00;58.20;;;;;;5062008;28;20032;-54
2021/05/25 09:02:58;;;;;;;2.50;1.70;;;21.90;58.10;;;;;;5067254;28;20044;-53
2021/05/25 09:05:26;;;;;;;1.50;1.40;;;21.80;58.70;;;;;;5069800;28;20046;-51
2021/05/25 09:07:59;;;;;;;1.75;1.48;;;21.70;58.10;;;;;;5067680;28;20032;-57
2021/05/25 09:10:48;;;;;;;1.63;1.52;;;21.70;58.70;;;;;;5074031;28;20035;-53
2021/05/25 09:13:18;;;;;;;2.20;1.65;;;21.70;58.60;;;;;;5071359;28;20706;-54
2021/05/25 09:15:46;;;;;;;1.77;1.67;;;21.60;58.20;;;;;;5068984;28;20036;-55
2021/05/25 09:18:17;;;;;;;2.40;1.63;;;21.60;58.20;;;;;;5051870;28;20059;-55
2021/05/25 09:20:51;;;;;;;3.10;1.92;;;21.70;58.00;;;;;;5068305;28;20036;-56
2021/05/25 09:23:23;;;;;;;2.03;1.77;;;21.80;57.80;;;;;;5068963;28;20039;-57
2021/05/25 09:26:04;;;;;;;1.60;1.50;;;21.80;57.70;;;;;;5068593;28;22516;-54
2021/05/25 09:28:29;;;;;;;2.28;1.85;;;21.90;57.90;;;;;;5063506;28;20028;-54
2021/05/25 09:30:56;;;;;;;2.72;1.85;;;21.90;58.00;;;;;;5073869;28;20755;-55
2021/05/25 09:33:39;;;;;;;3.00;1.83;;;22.00;57.90;;;;;;5058214;28;20070;-55
2021/05/25 09:36:11;;;;;;;2.15;1.48;;;22.00;57.40;;;;;;5073805;28;20068;-56
2021/05/25 09:38:39;;;;;;;1.50;1.33;;;22.00;56.60;;;;;;5068547;28;20042;-53
2021/05/25 09:41:04;;;;;;;1.65;1.55;;;22.00;56.50;;;;;;5067629;28;20047;-56
2021/05/25 09:43:32;;;;;;;3.20;1.83;;;21.90;56.40;;;;;;5074400;28;20408;-56
2021/05/25 09:46:13;;;;;;;1.73;1.63;;;21.90;56.30;;;;;;5068765;28;20044;-57
2021/05/25 09:48:59;;;;;;;1.60;1.50;;;21.90;56.90;;;;;;5059033;28;20032;-56
2021/05/25 09:51:29;;;;;;;2.30;1.52;;;21.80;56.70;;;;;;5068438;28;20036;-57
2021/05/25 09:53:56;;;;;;;;;;;21.70;56.10;;;;;;5065354;28;20388;-54
2021/05/25 09:56:34;;;;;;;1.45;1.20;;;21.60;56.40;;;;;;5061501;28;19962;-56
2021/05/25 09:59:00;;;;;;;2.13;1.60;;;21.50;56.70;;;;;;5063991;28;20028;-56
2021/05/25 10:01:36;;;;;;;1.85;1.60;;;21.50;56.50;;;;;;5064187;28;20047;-57
2021/05/25 10:04:14;;;;;;;2.22;1.52;;;21.40;56.70;;;;;;5061460;28;20028;-55
2021/05/25 10:06:41;;;;;;;1.55;1.45;;;21.30;56.70;;;;;;5069746;28;20636;-56
2021/05/25 10:09:08;;;;;;;4.55;1.98;;;21.20;57.20;;;;;;5065025;28;20115;-56
2021/05/25 10:11:35;;;;;;;2.03;1.60;;;21.20;57.00;;;;;;5066980;28;20397;-55
2021/05/25 10:14:01;;;;;;;1.80;1.70;;;21.10;57.10;;;;;;5075182;28;20016;-54
2021/05/25 10:16:29;;;;;;;1.98;1.63;;;21.10;56.80;;;;;;5073128;28;20040;-56
2021/05/25 10:21:38;;;;;;;1.55;1.45;;;20.90;57.00;;;;;;5071266;28;20040;-57
2021/05/25 10:24:04;;;;;;;2.50;1.60;;;20.90;56.80;;;;;;5072998;28;20028;-57
2021/05/25 10:26:31;;;;;;;2.08;1.90;;;20.90;56.50;;;;;;5071057;28;20024;-55
2021/05/25 10:28:57;;;;;;;2.05;1.50;;;20.80;56.70;;;;;;5071133;28;20032;-54
2021/05/25 10:31:35;;;;;;;2.35;1.80;;;20.80;56.70;;;;;;5066707;28;20039;-56
2021/05/25 10:34:21;;;;;;;3.42;1.48;;;20.80;56.60;;;;;;5075210;28;20107;-56
2021/05/25 10:36:55;;;;;;;1.63;1.52;;;20.80;56.50;;;;;;5079502;28;20028;-56
2021/05/25 10:39:41;;;;;;;1.77;1.55;;;20.90;56.90;;;;;;5070545;28;20028;-56
2021/05/25 10:42:22;;;;;;;1.63;1.52;;;20.90;56.80;;;;;;5078584;28;20503;-56
2021/05/25 10:44:52;;;;;;;;;;;20.90;56.70;;;;;;5080192;28;20481;-56
2021/05/25 10:47:23;;;;;;;1.30;1.23;;;20.80;56.80;;;;;;5070104;28;19972;-56
2021/05/25 10:50:11;;;;;;;1.50;1.40;;;20.90;56.60;;;;;;5071138;28;20089;-56
2021/05/25 10:52:37;;;;;;;3.08;1.60;;;20.90;56.30;;;;;;5072412;28;20085;-56
2021/05/25 10:55:03;;;;;;;1.52;1.27;;;20.90;56.10;;;;;;5071953;28;20033;-57
2021/05/25 10:57:46;;;;;;;1.48;1.20;;;20.90;55.80;;;;;;5075520;28;20028;-56
2021/05/25 11:00:17;;;;;;;3.25;1.50;;;20.90;55.40;;;;;;5067640;28;20079;-56
2021/05/25 11:02:51;;;;;;;3.67;1.20;;;20.90;55.50;;;;;;5068028;28;20024;-56
2021/05/25 11:05:36;;;;;;;1.42;1.33;;;20.90;55.10;;;;;;5065510;28;20028;-54
2021/05/25 11:08:08;;;;;;;1.55;1.30;;;20.90;54.60;;;;;;5072378;28;20028;-57
2021/05/25 11:10:36;;;;;;;1.63;1.40;;;20.90;54.50;;;;;;5067982;28;20435;-56
2021/05/25 11:13:41;;;;;;;1.30;1.23;;;20.90;54.10;;;;;;5065576;28;20767;-56
2021/05/25 11:16:17;;;;;;;3.25;1.48;;;20.90;54.40;;;;;;5053365;28;20036;-53
2021/05/25 11:22:36;;;;;;;1.05;1.05;;;20.90;54.50;;;;;;5067372;28;20040;-56
2021/05/25 11:24:35;;;;;;;1.67;1.58;;;21.00;54.50;;;;;;5052469;28;20480;-54
2021/05/25 11:27:14;;;;;;;;;;;20.90;54.30;;;;;;5075624;28;20345;-56
2021/05/25 11:29:51;;;;;;;1.50;1.40;;;20.90;54.40;;;;;;5080449;28;20391;-53
2021/05/25 11:32:20;;;;;;;2.50;1.70;;;20.90;54.60;;;;;;5074059;28;20039;-55
2021/05/25 11:34:54;;;;;;;2.08;1.30;;;21.00;54.30;;;;;;5068528;28;20743;-54
2021/05/25 11:37:20;;;;;;;1.30;1.20;;;21.00;54.00;;;;;;5077265;28;20039;-53
2021/05/25 11:39:46;;;;;;;1.20;1.15;;;21.00;54.10;;;;;;5070832;28;20037;-55
2021/05/25 11:42:12;;;;;;;1.75;1.52;;;21.00;54.20;;;;;;5071717;28;20440;-55
2021/05/25 11:44:44;;;;;;;2.80;1.40;;;21.00;54.20;;;;;;5069379;28;20028;-55
2021/05/25 11:47:11;;;;;;;1.33;1.27;;;21.00;54.50;;;;;;5074143;28;20085;-55
2021/05/25 11:49:41;;;;;;;1.55;1.33;;;21.00;54.60;;;;;;5073244;28;20115;-54
2021/05/25 11:52:29;;;;;;;1.15;1.15;;;21.00;54.50;;;;;;5078281;28;20036;-55
2021/05/25 11:54:57;;;;;;;1.50;1.40;;;21.00;54.60;;;;;;5074962;28;20040;-51
2021/05/25 11:57:49;;;;;;;1.10;1.10;;;21.00;54.60;;;;;;5077508;28;20035;-56
2021/05/25 12:00:16;;;;;;;2.05;1.25;;;21.00;54.80;;;;;;5067855;28;20097;-55
2021/05/25 12:02:45;;;;;;;1.42;1.33;;;21.10;54.90;;;;;;5073390;28;20077;-55
2021/05/25 12:05:18;;;;;;;1.58;1.25;;;21.00;54.90;;;;;;5073637;28;20032;-55
2021/05/25 12:08:01;;;;;;;1.50;1.40;;;21.00;55.00;;;;;;5068894;28;20023;-54
2021/05/25 12:10:30;;;;;;;1.70;1.30;;;21.10;54.70;;;;;;5073564;28;20032;-55
2021/05/25 12:13:26;;;;;;;2.55;1.20;;;21.00;54.30;;;;;;5070540;28;20039;-54
2021/05/25 12:15:53;;;;;;;1.50;1.40;;;21.10;54.20;;;;;;5053677;28;20123;-55
2021/05/25 12:18:24;;;;;;;1.38;1.27;;;21.00;54.30;;;;;;5075721;28;20032;-53
2021/05/25 12:20:54;;;;;;;0.85;0.85;;;21.10;54.30;;;;;;5069593;28;20111;-57
2021/05/25 12:23:24;;;;;;;1.50;1.40;;;21.10;55.30;;;;;;5080136;28;20032;-56
2021/05/25 12:25:52;;;;;;;1.40;1.30;;;21.10;54.70;;;;;;5059183;28;20078;-56
2021/05/25 12:28:32;;;;;;;1.30;1.20;;;21.10;54.90;;;;;;5074560;28;20047;-56
2021/05/25 12:30:58;;;;;;;1.50;1.40;;;21.10;55.00;;;;;;5078679;28;20043;-53
2021/05/25 12:33:29;;;;;;;3.45;1.80;;;21.10;54.80;;;;;;5076429;28;20028;-55
2021/05/25 12:36:17;;;;;;;1.75;1.63;;;21.10;54.80;;;;;;5078949;28;20032;-54
2021/05/25 12:39:32;;;;;;;1.42;1.33;;;21.10;55.00;;;;;;5076105;28;20051;-54
2021/05/25 12:41:58;;;;;;;1.88;1.40;;;21.10;55.20;;;;;;5069464;28;20045;-57
2021/05/25 12:44:33;;;;;;;3.00;1.98;;;21.10;55.20;;;;;;5073635;28;20028;-55
2021/05/25 12:47:01;;;;;;;1.67;1.58;;;21.10;55.30;;;;;;5073585;28;20093;-55
2021/05/25 12:49:31;;;;;;;4.40;1.70;;;21.10;55.70;;;;;;5082348;28;20054;-54
2021/05/25 12:52:21;;;;;;;1.73;1.52;;;21.20;56.10;;;;;;5077478;28;20056;-52
2021/05/25 12:54:54;;;;;;;1.73;1.60;;;21.10;55.60;;;;;;5080773;28;20024;-56
2021/05/25 12:57:21;;;;;;;1.40;1.30;;;21.10;55.80;;;;;;5081580;28;20028;-54
2021/05/25 12:59:58;;;;;;;2.55;1.75;;;21.10;56.10;;;;;;5071912;28;20027;-54
2021/05/25 13:02:41;;;;;;;2.05;1.50;;;21.20;56.30;;;;;;5077385;28;20476;-53
2021/05/25 13:05:09;;;;;;;1.70;1.60;;;21.20;55.80;;;;;;5076357;28;20032;-52